Latest Weather Observations for Parawa West

IDS60801

Issued at 10:31 am CST Friday 31 July 2015 (issued every 30 minutes, with the page automatically refreshed every 10 minutes)

About weather observations | Map of weather stations | Latest weather observations for SA | Other Formats
Station Details ID: 023875 Name: SECOND VALLEY FOREST AWS Lat: -35.57 Lon: 138.29 Height: 341.0 m
Data from the previous 72 hours. | See also: Recent months at Parawa West
Date/Time
CST
Temp
°C
App
Temp
°C
Dew
Point
Rel
Hum
%
Delta-T
°C
Wind Press
QNH
hPa
Press
MSL
hPa
Rain
since 9 am
mm
Dir
 
Spd
km/h
Gust
km/h
Spd
kts
Gust
kts
31/10:30am 8.5 5.0 5.3 80 1.5 NNW 13 26 7 14 1019.1 1019.5 0.0
31/10:00am 7.9 5.8 5.7 86 1.0 NNW 6 15 3 8 1019.5 1019.9 0.0
31/09:30am 7.0 5.4 4.5 84 1.1 NW 2 6 1 3 1019.8 1020.2 0.0
31/09:00am 7.6 5.9 3.8 77 1.7 ENE 2 4 1 2 1020.2 1020.6 0.8
31/08:30am 5.8 4.1 2.1 77 1.5 CALM 0 2 0 1 1020.5 1020.8 0.8
31/08:00am 5.1 3.3 0.9 74 1.7 CALM 0 4 0 2 1020.6 1020.9 0.8
31/07:30am 4.6 2.8 1.1 78 1.4 CALM 0 0 0 0 1020.6 1020.9 0.8
31/07:00am 5.4 3.6 1.3 75 1.7 CALM 0 2 0 1 1020.5 1020.8 0.8
31/06:30am 6.1 4.0 1.6 73 1.8 ENE 2 4 1 2 1020.4 1020.7 0.8
31/06:00am 6.0 4.2 1.5 73 1.8 CALM 0 0 0 0 1020.4 1020.7 0.8
31/05:30am 6.6 4.9 1.9 72 1.9 CALM 0 0 0 0 1020.4 1020.7 0.8
31/05:00am 6.5 4.4 1.6 71 2.0 ENE 2 6 1 3 1020.4 1020.7 0.8
31/04:30am 6.3 3.8 1.8 73 1.8 NE 4 6 2 3 1020.1 1020.5 0.8
31/04:00am 7.1 5.0 1.8 69 2.2 SSE 2 4 1 2 1020.6 1020.9 0.8
31/03:30am 6.8 4.4 2.1 72 2.0 W 4 7 2 4 1020.7 1021.0 0.8
31/03:00am 7.5 5.1 2.2 69 2.2 S 4 11 2 6 1021.0 1021.3 0.8
31/02:30am 7.2 5.6 2.3 71 2.1 CALM 0 0 0 0 1021.0 1021.3 0.8
31/02:00am 7.5 5.4 2.0 68 2.3 S 2 6 1 3 1021.2 1021.5 0.8
31/01:30am 7.7 5.7 2.2 68 2.3 S 2 7 1 4 1021.4 1021.7 0.8
31/01:00am 6.6 3.7 1.7 71 2.0 S 6 11 3 6 1021.6 1022.0 0.8
31/12:30am 5.9 3.4 1.6 74 1.8 S 4 6 2 3 1021.6 1022.0 0.8
31/12:00am 6.0 3.1 1.5 73 1.8 S 6 7 3 4 1021.9 1022.3 0.8
 
Date/Time
CST
Temp
°C
App
Temp
°C
Dew
Point
Rel
Hum
%
Delta-T
°C
Wind Press
QNH
hPa
Press
MSL
hPa
Rain
since 9 am
mm
Dir
 
Spd
km/h
Gust
km/h
Spd
kts
Gust
kts
30/11:30pm 6.3 3.8 1.8 73 1.8 S 4 7 2 4 1021.7 1022.1 0.8
30/11:00pm 6.2 3.2 2.3 76 1.6 S 7 11 4 6 1021.6 1022.0 0.8
30/10:30pm 6.5 3.6 2.6 76 1.6 S 7 11 4 6 1021.8 1022.2 0.8
30/10:00pm 6.4 3.0 2.1 74 1.8 S 9 15 5 8 1021.6 1022.0 0.8
30/09:30pm 6.7 3.0 2.2 73 1.9 S 11 15 6 8 1021.5 1021.9 0.8
30/09:00pm 7.6 3.3 3.1 73 1.9 S 15 20 8 11 1021.2 1021.5 0.8
30/08:30pm 7.6 3.1 4.4 80 1.4 S 17 24 9 13 1020.7 1021.0 0.8
30/08:00pm 7.9 3.5 4.8 81 1.4 SSW 17 22 9 12 1020.5 1020.8 0.8
30/07:30pm 8.2 3.6 5.7 84 1.1 SSW 19 28 10 15 1019.9 1020.3 0.8
30/07:00pm 8.6 4.2 7.2 91 0.7 SSW 20 30 11 16 1019.5 1019.9 0.8
30/06:30pm 9.0 4.8 7.5 90 0.7 SSW 19 26 10 14 1019.0 1019.4 0.8
30/06:00pm 8.9 5.2 8.0 94 0.4 SSW 17 24 9 13 1018.8 1019.1 0.8
30/05:30pm 8.9 4.9 8.1 95 0.4 SSW 19 30 10 16 1018.3 1018.6 0.8
30/05:00pm 9.4 5.3 8.8 96 0.3 SW 20 37 11 20 1018.0 1018.3 0.4
30/04:30pm 9.8 5.5 9.2 96 0.3 SW 22 35 12 19 1017.4 1017.7 0.4
30/04:00pm 11.4 8.9 10.9 97 0.3 WNW 15 20 8 11 1016.6 1017.0 0.4
30/03:30pm 10.9 7.3 10.4 97 0.3 WNW 20 33 11 18 1016.2 1016.5 0.4
30/03:00pm 10.6 7.1 10.1 97 0.3 NW 19 28 10 15 1016.1 1016.4 0.4
30/02:30pm 10.4 6.8 9.9 97 0.3 NW 19 32 10 17 1016.0 1016.3 0.4
30/02:00pm 10.0 6.3 9.4 96 0.3 NW 19 28 10 15 1015.9 1016.2 0.4
30/01:30pm 9.8 4.2 8.7 93 0.5 NW 28 43 15 23 1015.9 1016.2 0.2
30/01:00pm 10.1 3.8 7.5 84 1.3 NW 30 48 16 26 1016.0 1016.3 0.0
30/12:58pm 10.3 4.4 7.4 82 1.4 NW 28 48 15 26 1016.0 1016.3 0.0
30/12:30pm 10.7 4.6 6.5 75 2.0 NW 28 43 15 23 1015.7 1016.0 0.0
30/12:05pm 10.7 4.4 5.5 70 2.4 NW 28 46 15 25 1015.8 1016.1 0.0
30/12:00pm 10.7 4.4 5.9 72 2.3 NW 28 43 15 23 1016.0 1016.3 0.0
30/11:33am 10.1 3.3 5.3 72 2.2 NNW 30 52 16 28 1016.0 1016.3 0.0
30/11:30am 10.1 3.4 5.5 73 2.1 NNW 30 43 16 23 1016.1 1016.4 0.0
30/11:19am 9.8 3.4 5.2 73 2.1 NNW 28 48 15 26 1016.3 1016.6 0.0
30/11:00am 9.8 3.3 4.6 70 2.4 NNW 28 43 15 23 1016.5 1016.8 0.0
30/10:30am 9.4 4.1 5.2 75 1.9 NW 22 35 12 19 1016.5 1016.8 0.0
30/10:00am 9.4 4.5 5.0 74 2.0 NW 20 37 11 20 1016.3 1016.6 0.0
30/09:30am 9.1 4.3 4.9 75 1.9 NW 19 33 10 18 1016.1 1016.4 0.0
30/09:00am 8.9 4.5 4.9 76 1.8 NW 17 30 9 16 1016.3 1016.6 0.6
30/08:30am 8.5 4.6 5.4 81 1.4 NW 15 24 8 13 1016.8 1017.2 0.6
30/08:00am 8.8 4.5 5.2 78 1.6 NW 17 32 9 17 1017.3 1017.6 0.2
30/07:30am 8.4 5.1 4.8 78 1.6 NW 11 22 6 12 1016.8 1017.2 0.2
30/07:00am 8.2 5.2 4.2 76 1.8 NW 9 17 5 9 1017.1 1017.5 0.2
30/06:30am 7.9 5.3 4.3 78 1.6 NW 7 19 4 10 1017.0 1017.4 0.2
30/06:00am 7.8 4.4 4.0 77 1.7 NNW 11 24 6 13 1016.9 1017.3 0.2
30/05:30am 7.7 5.0 3.7 76 1.7 NW 7 24 4 13 1016.5 1016.8 0.2
30/05:00am 7.3 4.6 3.9 79 1.5 E 7 19 4 10 1016.8 1017.2 0.2
30/04:30am 7.2 4.7 4.7 84 1.1 NW 7 17 4 9 1018.0 1018.3 0.2
30/04:00am 7.8 4.8 4.2 78 1.6 NNW 9 22 5 12 1018.8 1019.1 0.0
30/03:30am 7.7 5.0 3.7 76 1.7 WNW 7 17 4 9 1018.8 1019.1 0.0
30/03:00am 8.1 4.2 3.6 73 2.0 NW 13 26 7 14 1019.3 1019.7 0.0
30/02:30am 8.0 4.1 3.5 73 2.0 NW 13 37 7 20 1019.5 1019.9 0.0
30/02:00am 8.2 4.0 3.9 74 1.9 NW 15 26 8 14 1019.7 1020.1 0.0
30/01:30am 8.3 3.1 3.6 72 2.1 NW 20 33 11 18 1019.5 1019.9 0.0
30/01:00am 8.3 4.1 3.6 72 2.1 NW 15 26 8 14 1019.7 1020.1 0.0
30/12:30am 8.5 4.2 3.4 70 2.2 NW 15 30 8 16 1020.4 1020.7 0.0
30/12:00am 8.6 3.6 3.4 70 2.3 NW 19 32 10 17 1020.5 1020.8 0.0
 
Date/Time
CST
Temp
°C
App
Temp
°C
Dew
Point
Rel
Hum
%
Delta-T
°C
Wind Press
QNH
hPa
Press
MSL
hPa
Rain
since 9 am
mm
Dir
 
Spd
km/h
Gust
km/h
Spd
kts
Gust
kts
29/11:30pm 8.7 3.6 3.9 72 2.1 NW 20 37 11 20 1020.9 1021.2 0.0
29/11:00pm 8.8 4.0 4.4 74 2.0 NW 19 35 10 19 1021.3 1021.6 0.0
29/10:30pm 8.6 4.2 5.0 78 1.6 NW 17 32 9 17 1021.5 1021.9 0.0
29/10:00pm 8.6 4.9 4.4 75 1.9 NW 13 33 7 18 1022.3 1022.7 0.0
29/09:30pm 8.5 4.7 4.1 74 1.9 NW 13 26 7 14 1022.4 1022.8 0.0
29/09:00pm 8.3 4.6 4.7 78 1.6 NW 13 24 7 13 1022.4 1022.8 0.0
29/08:30pm 8.3 4.3 4.7 78 1.6 NW 15 28 8 15 1022.6 1023.0 0.0
29/08:00pm 8.4 4.1 5.3 81 1.4 NW 17 28 9 15 1022.6 1023.0 0.0
29/07:30pm 8.4 4.8 5.0 79 1.5 NW 13 33 7 18 1022.9 1023.3 0.0
29/07:00pm 8.4 5.1 4.6 77 1.7 NNW 11 28 6 15 1022.9 1023.3 0.0
29/06:30pm 8.6 4.9 4.6 76 1.8 NW 13 26 7 14 1023.1 1023.5 0.0
29/06:00pm 8.6 5.0 5.2 79 1.5 NW 13 26 7 14 1023.0 1023.4 0.0
29/05:30pm 8.4 5.2 5.0 79 1.5 NW 11 19 6 10 1022.7 1023.1 0.0
29/05:00pm 8.5 4.9 5.1 79 1.5 NW 13 28 7 15 1022.8 1023.2 0.0
29/04:30pm 8.7 4.7 4.9 77 1.7 NW 15 28 8 15 1022.9 1023.3 0.0
29/04:00pm 9.0 4.3 5.0 76 1.8 NW 19 28 10 15 1023.1 1023.5 0.0
29/03:30pm 9.6 5.7 5.2 74 2.0 NW 15 24 8 13 1023.1 1023.5 0.0
29/03:00pm 9.7 5.8 5.5 75 1.9 NW 15 33 8 18 1023.7 1024.0 0.0
29/02:30pm 9.4 4.9 6.1 80 1.5 NW 19 32 10 17 1023.8 1024.1 0.0
29/02:00pm 9.0 3.8 5.6 79 1.6 NW 22 41 12 22 1024.3 1024.7 0.0
29/01:30pm 8.6 3.9 5.9 83 1.2 NW 20 39 11 21 1024.9 1025.3 0.0
29/01:00pm 8.8 3.7 5.9 82 1.3 NW 22 43 12 23 1025.5 1025.9 0.0
29/12:30pm 8.2 4.0 5.8 85 1.1 NW 17 35 9 19 1026.3 1026.7 0.0
29/12:00pm 8.4 5.1 6.4 87 0.9 NW 13 26 7 14 1027.1 1027.5 0.0
29/11:30am 8.7 6.1 6.2 84 1.2 NW 9 26 5 14 1027.9 1028.3 0.0
29/11:00am 7.9 5.7 6.0 88 0.9 NW 7 15 4 8 1028.1 1028.5 0.0
29/10:30am 7.8 4.8 5.8 87 0.9 NW 11 19 6 10 1028.8 1029.2 0.0
29/10:00am 7.5 4.4 5.5 87 0.9 NW 11 19 6 10 1028.8 1029.2 0.0
29/09:30am 7.4 5.1 5.5 88 0.9 NNW 7 15 4 8 1029.2 1029.7 0.0
29/09:00am 7.2 4.4 5.3 88 0.9 NW 9 17 5 9 1029.7 1030.1 1.0
29/08:30am 6.9 4.7 5.2 89 0.8 NNW 6 11 3 6 1029.4 1029.9 1.0
29/08:00am 6.5 4.2 5.0 90 0.7 NW 6 9 3 5 1029.5 1030.0 1.0
29/07:30am 6.4 4.5 4.9 90 0.7 N 4 9 2 5 1029.7 1030.1 1.0
29/07:00am 6.5 4.2 4.8 89 0.8 NW 6 11 3 6 1029.3 1029.8 1.0
29/06:30am 6.4 4.5 5.0 91 0.6 NNW 4 13 2 7 1028.9 1029.4 1.0
29/06:00am 6.0 3.6 4.5 90 0.7 NE 6 7 3 4 1028.7 1029.1 1.0
29/05:30am 6.0 4.0 4.3 89 0.7 NNE 4 7 2 4 1029.2 1029.7 1.0
29/05:00am 6.3 4.3 4.5 88 0.8 NNW 4 15 2 8 1028.5 1028.9 1.0
29/04:30am 6.4 3.8 4.2 86 1.0 NNW 7 15 4 8 1029.5 1030.0 1.0
29/04:00am 6.0 3.5 4.0 87 0.9 NNW 6 11 3 6 1029.5 1030.0 1.0
29/03:30am 6.2 3.7 3.9 85 1.0 NNW 6 9 3 5 1029.5 1030.0 1.0
29/03:00am 5.9 3.7 3.2 83 1.1 WSW 4 9 2 5 1029.3 1029.8 1.0
29/02:30am 5.7 3.5 3.4 85 1.0 W 4 7 2 4 1030.0 1030.4 1.0
29/02:00am 5.8 4.1 4.0 88 0.8 WNW 2 6 1 3 1030.0 1030.4 1.0
29/01:30am 4.9 3.0 3.1 88 0.7 NNW 2 4 1 2 1030.6 1031.0 1.0
29/01:00am 4.9 3.0 3.1 88 0.8 N 2 4 1 2 1031.0 1031.4 1.0
29/12:30am 4.7 2.8 2.7 87 0.8 N 2 6 1 3 1031.4 1031.9 1.0
29/12:00am 4.7 3.1 2.7 87 0.8 CALM 0 0 0 0 1031.6 1032.1 1.0
 
Date/Time
CST
Temp
°C
App
Temp
°C
Dew
Point
Rel
Hum
%
Delta-T
°C
Wind Press
QNH
hPa
Press
MSL
hPa
Rain
since 9 am
mm
Dir
 
Spd
km/h
Gust
km/h
Spd
kts
Gust
kts
28/11:30pm 4.8 3.2 2.5 85 0.9 CALM 0 0 0 0 1031.4 1031.9 1.0
28/11:00pm 5.4 3.9 2.9 84 1.1 CALM 0 2 0 1 1032.2 1032.7 1.0
28/10:30pm 5.3 3.8 3.2 86 0.9 CALM 0 4 0 2 1032.4 1032.9 1.0
28/10:00pm 5.6 4.2 3.6 87 0.9 CALM 0 4 0 2 1032.4 1032.9 1.0
28/09:30pm 5.6 4.3 3.9 89 0.7 CALM 0 0 0 0 1033.2 1033.6 1.0
28/09:00pm 6.1 4.9 4.7 91 0.6 CALM 0 4 0 2 1033.5 1033.9 1.0
28/08:30pm 6.2 4.4 5.3 94 0.4 NNW 4 4 2 2 1033.5 1033.9 1.0
28/08:00pm 6.0 4.5 5.1 94 0.4 N 2 4 1 2 1033.9 1034.4 1.0
28/07:30pm 5.6 4.4 4.7 94 0.4 CALM 0 0 0 0 1033.7 1034.1 1.0
28/07:00pm 5.9 4.8 5.0 94 0.4 CALM 0 2 0 1 1033.9 1034.4 1.0
28/06:30pm 6.0 4.9 5.1 94 0.4 CALM 0 4 0 2 1033.7 1034.1 1.0
28/06:00pm 6.3 4.9 5.3 93 0.4 NNW 2 4 1 2 1033.5 1033.9 1.0
28/05:30pm 7.1 5.8 5.9 92 0.5 N 2 4 1 2 1033.6 1034.0 1.0
28/05:00pm 7.8 6.2 6.4 91 0.7 NNW 4 9 2 5 1033.9 1034.4 1.0
28/04:30pm 8.1 6.2 6.6 90 0.7 NNW 6 9 3 5 1033.8 1034.2 1.0
28/04:00pm 8.3 6.8 6.8 90 0.7 NW 4 11 2 6 1033.8 1034.2 1.0
28/03:30pm 8.4 6.3 6.7 89 0.8 NW 7 13 4 7 1034.1 1034.6 1.0
28/03:00pm 8.7 6.6 6.8 88 0.9 NNW 7 11 4 6 1033.9 1034.4 1.0
28/02:30pm 9.0 6.6 6.8 86 1.0 NNW 9 17 5 9 1033.9 1034.4 1.0
28/02:00pm 8.8 6.4 7.1 89 0.8 NW 9 15 5 8 1034.0 1034.5 1.0
28/01:30pm 8.6 6.6 7.1 90 0.7 NNW 7 13 4 7 1034.4 1034.9 1.0
28/01:00pm 8.3 5.9 7.1 92 0.6 NNW 9 19 5 10 1034.9 1035.4 1.0
28/12:30pm 8.6 6.3 7.5 93 0.5 NW 9 15 5 8 1035.5 1036.0 1.0
28/12:00pm 8.4 6.1 7.3 93 0.5 NW 9 17 5 9 1036.0 1036.4 1.0
28/11:30am 8.6 6.8 7.8 95 0.4 NW 7 17 4 9 1036.4 1036.9 1.0
28/11:00am 8.3 6.0 7.5 95 0.4 NW 9 17 5 9 1036.7 1037.2 0.4

Other Formats:

Comma delimited format used in spreadsheet applications
http://www.bom.gov.au/fwo/IDS60801/IDS60801.94811.axf

JavaScript Object Notation format (JSON) in row-major order
http://www.bom.gov.au/fwo/IDS60801/IDS60801.94811.json